createdAt,value
2023-05-13T00:00:58.891Z,9.70
2023-05-13T00:03:26.658Z,10.95
2023-05-13T00:05:54.301Z,10.52
2023-05-13T00:08:21.846Z,11.32
2023-05-13T00:10:49.264Z,11.05
2023-05-13T00:13:16.670Z,13.60
2023-05-13T00:15:44.140Z,15.18
2023-05-13T00:18:12.268Z,19.45
2023-05-13T00:20:40.001Z,20.15
2023-05-13T00:23:07.962Z,22.30
2023-05-13T00:25:35.500Z,22.85
2023-05-13T00:28:03.032Z,24.75
2023-05-13T00:30:31.081Z,24.60
2023-05-13T00:32:58.950Z,25.15
2023-05-13T00:35:26.504Z,25.60
2023-05-13T00:37:53.847Z,26.40
2023-05-13T00:40:23.262Z,27.50
2023-05-13T00:42:51.270Z,28.02
2023-05-13T00:45:18.831Z,27.10
2023-05-13T00:47:46.385Z,26.92
2023-05-13T00:50:14.436Z,28.42
2023-05-13T00:52:42.491Z,27.40
2023-05-13T00:55:10.444Z,28.05
2023-05-13T00:57:38.175Z,28.60
2023-05-13T01:00:06.249Z,27.63
2023-05-13T01:02:55.737Z,30.77
2023-05-13T01:05:28.450Z,30.50
2023-05-13T01:08:22.389Z,32.88
2023-05-13T01:10:52.009Z,34.85
2023-05-13T01:13:28.882Z,35.83
2023-05-13T01:16:18.162Z,39.17
2023-05-13T01:18:49.207Z,40.97
2023-05-13T01:21:16.802Z,39.38
2023-05-13T01:23:44.318Z,42.30
2023-05-13T01:26:14.229Z,43.92
2023-05-13T01:28:41.874Z,43.90
2023-05-13T01:31:11.078Z,44.08
2023-05-13T01:33:39.030Z,48.03
2023-05-13T01:36:07.566Z,47.50
2023-05-13T01:38:37.068Z,48.08
2023-05-13T01:41:04.906Z,48.63
2023-05-13T01:43:32.595Z,50.40
2023-05-13T01:46:01.529Z,45.92
2023-05-13T01:48:29.531Z,49.67
2023-05-13T01:50:58.426Z,47.70
2023-05-13T01:53:28.328Z,44.65
2023-05-13T01:55:58.085Z,47.35
2023-05-13T01:58:25.634Z,44.33
2023-05-13T02:00:57.703Z,46.40
2023-05-13T02:03:25.596Z,43.10
2023-05-13T02:05:53.457Z,43.40
2023-05-13T02:08:22.259Z,43.13
2023-05-13T02:11:00.453Z,41.22
2023-05-13T02:13:31.826Z,42.08
2023-05-13T02:15:59.415Z,38.30
2023-05-13T02:18:27.196Z,38.95
2023-05-13T02:20:54.941Z,38.88
2023-05-13T02:23:22.679Z,37.50
2023-05-13T02:25:51.370Z,36.35
2023-05-13T02:28:19.308Z,36.05
2023-05-13T02:30:46.934Z,35.63
2023-05-13T02:33:15.129Z,33.85
2023-05-13T02:35:43.074Z,34.65
2023-05-13T02:38:10.676Z,34.65
2023-05-13T02:40:38.423Z,35.00
2023-05-13T02:43:06.419Z,33.72
2023-05-13T02:45:47.187Z,34.10
2023-05-13T02:48:15.094Z,33.28
2023-05-13T02:50:42.629Z,31.60
2023-05-13T02:53:11.149Z,32.33
2023-05-13T02:55:43.420Z,30.42
2023-05-13T02:58:11.011Z,31.45
2023-05-13T03:00:38.367Z,29.83
2023-05-13T03:03:05.995Z,28.85
2023-05-13T03:05:35.944Z,28.60
2023-05-13T03:08:03.691Z,27.98
2023-05-13T03:10:31.193Z,28.50
2023-05-13T03:12:58.568Z,27.15
2023-05-13T03:15:25.906Z,26.25
2023-05-13T03:17:55.573Z,27.25
2023-05-13T03:20:23.321Z,28.00
2023-05-13T03:22:50.968Z,25.20
2023-05-13T03:25:18.446Z,27.48
2023-05-13T03:27:51.018Z,26.10
2023-05-13T03:30:21.317Z,28.98
2023-05-13T03:32:57.981Z,24.60
2023-05-13T03:35:25.578Z,23.98
2023-05-13T03:37:55.821Z,22.60
2023-05-13T03:40:23.492Z,21.42
2023-05-13T03:42:51.777Z,22.20
2023-05-13T03:45:21.284Z,20.05
2023-05-13T03:47:54.028Z,16.42
2023-05-13T03:50:24.739Z,20.08
2023-05-13T03:52:53.135Z,18.45
2023-05-13T03:55:22.191Z,18.75
2023-05-13T03:57:51.053Z,18.33
2023-05-13T04:00:21.441Z,15.20
2023-05-13T04:02:49.704Z,13.00
2023-05-13T04:05:19.808Z,12.52
2023-05-13T04:07:47.311Z,9.65
2023-05-13T04:10:15.682Z,9.68
2023-05-13T04:12:43.801Z,10.23
2023-05-13T04:15:11.426Z,8.57
2023-05-13T04:17:38.910Z,9.30
2023-05-13T04:20:07.794Z,8.52
2023-05-13T04:22:35.834Z,10.65
2023-05-13T04:25:03.326Z,11.57
2023-05-13T04:27:31.273Z,11.85
2023-05-13T04:30:08.984Z,11.57
2023-05-13T04:32:39.304Z,11.32
2023-05-13T04:35:09.251Z,12.88
2023-05-13T04:37:37.620Z,11.95
2023-05-13T04:40:08.599Z,12.60
2023-05-13T04:42:36.248Z,11.20
2023-05-13T04:45:04.230Z,10.80
2023-05-13T04:47:35.297Z,11.45
2023-05-13T04:50:02.976Z,10.43
2023-05-13T04:52:32.128Z,9.63
2023-05-13T04:54:59.584Z,11.63
2023-05-13T04:57:28.533Z,11.43
2023-05-13T04:59:56.667Z,11.40
2023-05-13T05:02:24.389Z,11.20
2023-05-13T05:04:51.929Z,10.40
2023-05-13T05:07:20.098Z,9.77
2023-05-13T05:09:49.875Z,9.68
2023-05-13T05:12:17.558Z,9.40
2023-05-13T05:14:47.253Z,9.20
2023-05-13T05:17:18.535Z,8.73
2023-05-13T05:19:46.727Z,9.00
2023-05-13T05:22:15.205Z,8.82
2023-05-13T05:24:42.744Z,9.57
2023-05-13T05:27:10.420Z,7.32
2023-05-13T05:29:37.932Z,7.97
2023-05-13T05:32:06.198Z,6.15
2023-05-13T05:34:33.847Z,6.30
2023-05-13T05:37:01.392Z,7.35
2023-05-13T05:39:29.580Z,7.65
2023-05-13T05:41:57.072Z,7.13
2023-05-13T05:44:24.609Z,7.22
2023-05-13T05:46:55.412Z,8.63
2023-05-13T05:49:23.895Z,9.40
2023-05-13T05:51:51.763Z,9.20
2023-05-13T05:54:20.586Z,10.85
2023-05-13T05:56:48.630Z,10.68
2023-05-13T05:59:16.145Z,10.82
2023-05-13T06:01:43.680Z,11.98
2023-05-13T06:04:11.328Z,12.38
2023-05-13T06:06:40.455Z,12.30
2023-05-13T06:09:08.158Z,13.15
2023-05-13T06:11:35.881Z,13.73
2023-05-13T06:14:04.179Z,15.43
2023-05-13T06:16:31.998Z,14.98
2023-05-13T06:19:00.980Z,14.35
2023-05-13T06:21:28.725Z,13.20
2023-05-13T06:23:56.476Z,13.75
2023-05-13T06:26:23.915Z,14.05
2023-05-13T06:28:51.337Z,14.30
2023-05-13T06:31:19.017Z,14.98
2023-05-13T06:33:47.238Z,16.90
2023-05-13T06:36:14.735Z,16.40
2023-05-13T06:38:42.354Z,14.98
2023-05-13T06:41:09.830Z,16.08
2023-05-13T06:43:39.448Z,15.52
2023-05-13T06:46:16.614Z,17.00
2023-05-13T06:48:44.326Z,14.82
2023-05-13T06:51:11.803Z,14.40
2023-05-13T06:53:39.338Z,16.02
2023-05-13T06:56:07.337Z,12.60
2023-05-13T06:58:34.938Z,12.75
2023-05-13T07:01:03.001Z,10.82
2023-05-13T07:03:30.940Z,9.50
2023-05-13T07:05:58.599Z,10.02
2023-05-13T07:08:26.083Z,11.30
2023-05-13T07:10:53.817Z,12.30
2023-05-13T07:13:21.326Z,13.15
2023-05-13T07:15:48.851Z,12.88
2023-05-13T07:18:16.688Z,12.82
2023-05-13T07:20:44.295Z,12.90
2023-05-13T07:23:11.746Z,7.32
2023-05-13T07:25:40.044Z,7.00
2023-05-13T07:28:10.002Z,5.28
2023-05-13T07:30:40.323Z,6.47
2023-05-13T07:33:07.995Z,6.28
2023-05-13T07:35:35.582Z,7.40
2023-05-13T07:38:04.175Z,5.90
2023-05-13T07:40:32.409Z,7.60
2023-05-13T07:42:59.905Z,8.15
2023-05-13T07:45:27.892Z,7.55
2023-05-13T07:47:55.398Z,8.13
2023-05-13T07:50:22.933Z,9.05
2023-05-13T07:52:51.845Z,9.32
2023-05-13T07:55:19.690Z,8.23
2023-05-13T07:57:47.279Z,8.52
2023-05-13T08:00:15.787Z,8.20
2023-05-13T08:02:44.002Z,10.43
2023-05-13T08:05:12.432Z,9.15
2023-05-13T08:07:40.337Z,5.15
2023-05-13T08:10:08.308Z,7.32
2023-05-13T08:12:35.978Z,6.43
2023-05-13T08:15:04.755Z,6.43
2023-05-13T08:17:33.148Z,5.85
2023-05-13T08:20:04.161Z,5.90
2023-05-13T08:22:32.162Z,5.03
2023-05-13T08:25:01.438Z,4.57
2023-05-13T08:27:29.233Z,4.28
2023-05-13T08:29:56.736Z,3.30
2023-05-13T08:32:24.243Z,3.40
2023-05-13T08:34:51.749Z,2.67
2023-05-13T08:37:19.336Z,2.50
2023-05-13T08:39:47.166Z,3.13
2023-05-13T08:42:19.334Z,3.13
2023-05-13T08:44:46.840Z,2.15
2023-05-13T08:47:46.921Z,1.83
2023-05-13T08:50:14.874Z,2.05
2023-05-13T08:52:43.104Z,2.60
2023-05-13T08:55:10.605Z,1.98
2023-05-13T08:57:39.506Z,2.28
2023-05-13T09:00:07.760Z,2.13
2023-05-13T09:02:35.951Z,2.50
2023-05-13T09:05:07.110Z,2.20
2023-05-13T09:07:37.369Z,2.33
2023-05-13T09:10:06.259Z,2.30
2023-05-13T09:12:53.780Z,2.50
2023-05-13T09:15:23.366Z,2.00
2023-05-13T09:17:53.161Z,2.20
2023-05-13T09:20:21.377Z,2.13
2023-05-13T09:22:50.915Z,2.10
2023-05-13T09:25:20.364Z,1.80
2023-05-13T09:27:50.471Z,1.65
2023-05-13T09:30:17.994Z,1.95
2023-05-13T09:32:45.798Z,2.30
2023-05-13T09:35:17.180Z,2.58
2023-05-13T09:37:48.454Z,1.90
2023-05-13T09:40:17.259Z,1.88
2023-05-13T09:42:45.402Z,1.70
2023-05-13T09:45:14.102Z,1.90
2023-05-13T09:47:42.563Z,1.98
2023-05-13T09:50:11.815Z,1.73
2023-05-13T09:52:40.574Z,1.58
2023-05-13T09:55:09.843Z,2.00
2023-05-13T09:57:39.237Z,1.98
2023-05-13T10:00:10.992Z,2.10
2023-05-13T10:02:43.625Z,2.03
2023-05-13T10:05:11.298Z,2.08
2023-05-13T10:07:39.440Z,2.05
2023-05-13T10:10:07.782Z,1.65
2023-05-13T10:12:36.441Z,1.75
2023-05-13T10:15:05.535Z,1.85
2023-05-13T10:17:33.384Z,2.00
2023-05-13T10:20:01.820Z,1.85
2023-05-13T10:22:30.813Z,1.60
2023-05-13T10:24:59.084Z,1.77
2023-05-13T10:27:28.462Z,2.00
2023-05-13T10:29:57.053Z,1.35
2023-05-13T10:32:25.538Z,2.10
2023-05-13T10:35:00.476Z,2.00
2023-05-13T10:37:27.919Z,2.63
2023-05-13T10:40:01.467Z,2.28
2023-05-13T10:42:43.126Z,2.00
2023-05-13T10:45:11.000Z,2.13
2023-05-13T10:47:39.232Z,2.17
2023-05-13T10:50:22.279Z,2.15
2023-05-13T10:52:50.212Z,3.13
2023-05-13T10:55:19.305Z,3.85
2023-05-13T10:58:11.159Z,4.78
2023-05-13T11:00:43.250Z,2.30
2023-05-13T11:03:14.419Z,2.00
2023-05-13T11:05:44.640Z,2.70
2023-05-13T11:08:12.102Z,1.95
2023-05-13T11:10:39.600Z,2.22
2023-05-13T11:13:13.548Z,2.03
2023-05-13T11:15:54.273Z,1.63
2023-05-13T11:18:29.635Z,1.90
2023-05-13T11:21:05.084Z,2.15
2023-05-13T11:23:49.808Z,2.00
2023-05-13T11:26:17.347Z,1.80
2023-05-13T11:28:59.909Z,1.92
2023-05-13T11:31:28.640Z,2.67
2023-05-13T11:34:09.836Z,2.28
2023-05-13T11:36:38.781Z,1.80
2023-05-13T11:39:14.062Z,2.38
2023-05-13T11:41:50.821Z,2.45
2023-05-13T11:44:20.357Z,2.20
2023-05-13T11:46:55.719Z,2.28
2023-05-13T11:49:44.085Z,2.00
2023-05-13T11:52:16.055Z,2.30
2023-05-13T11:54:53.741Z,3.42
2023-05-13T11:57:28.106Z,2.67
2023-05-13T12:00:00.425Z,3.70
2023-05-13T12:02:29.737Z,2.50
2023-05-13T12:05:02.038Z,2.10
2023-05-13T12:07:29.684Z,4.03
2023-05-13T12:09:58.470Z,2.30
2023-05-13T12:12:28.293Z,2.35
2023-05-13T12:14:56.279Z,2.35
2023-05-13T12:17:25.027Z,2.30
2023-05-13T12:20:05.828Z,2.30
2023-05-13T12:22:34.473Z,2.10
2023-05-13T12:25:36.398Z,2.25
2023-05-13T12:28:10.796Z,2.17
2023-05-13T12:30:39.645Z,2.00
2023-05-13T12:33:15.099Z,2.20
2023-05-13T12:35:43.157Z,2.28
2023-05-13T12:38:17.873Z,1.70
2023-05-13T12:40:48.640Z,1.98
2023-05-13T12:43:17.239Z,2.40
2023-05-13T12:45:45.702Z,2.60
2023-05-13T12:48:14.502Z,6.88
2023-05-13T12:50:42.100Z,5.45
2023-05-13T12:53:09.668Z,51.85
2023-05-13T12:55:40.273Z,53.78
2023-05-13T12:58:11.015Z,9.18
2023-05-13T13:00:39.022Z,46.55
2023-05-13T13:03:08.011Z,96.43
2023-05-13T13:05:36.206Z,3.20
2023-05-13T13:08:05.479Z,22.80
2023-05-13T13:10:33.226Z,10.90
2023-05-13T13:13:01.552Z,3.42
2023-05-13T13:15:29.207Z,2.20
2023-05-13T13:17:56.792Z,9.25
2023-05-13T13:20:24.413Z,14.30
2023-05-13T13:22:53.781Z,2.60
2023-05-13T13:25:22.279Z,1.45
2023-05-13T13:27:50.324Z,31.63
2023-05-13T13:30:17.851Z,35.80
2023-05-13T13:32:45.856Z,7.60
2023-05-13T13:35:13.452Z,2.20
2023-05-13T13:37:41.081Z,2.42
2023-05-13T13:40:09.244Z,9.35
2023-05-13T13:42:44.116Z,19.33
2023-05-13T13:45:13.714Z,10.20
2023-05-13T13:47:41.573Z,2.53
2023-05-13T13:50:09.516Z,4.50
2023-05-13T13:52:37.979Z,2.97
2023-05-13T13:55:06.435Z,11.27
2023-05-13T13:57:34.019Z,28.70
2023-05-13T14:00:01.531Z,49.80
2023-05-13T14:02:29.832Z,22.35
2023-05-13T14:04:57.860Z,4.63
2023-05-13T14:07:25.483Z,7.35
2023-05-13T14:09:52.948Z,16.63
2023-05-13T14:12:20.619Z,3.40
2023-05-13T14:14:48.248Z,15.55
2023-05-13T14:17:15.786Z,7.90
2023-05-13T14:19:43.336Z,2.40
2023-05-13T14:22:10.799Z,2.78
2023-05-13T14:24:38.359Z,8.93
2023-05-13T14:27:06.070Z,5.95
2023-05-13T14:29:33.633Z,1.92
2023-05-13T14:32:03.152Z,2.78
2023-05-13T14:34:30.744Z,2.10
2023-05-13T14:36:58.346Z,1.80
2023-05-13T14:39:25.846Z,1.85
2023-05-13T14:41:53.420Z,2.85
2023-05-13T14:44:21.097Z,5.03
2023-05-13T14:46:50.817Z,3.47
2023-05-13T14:49:18.319Z,22.30
2023-05-13T14:51:45.878Z,2.65
2023-05-13T14:54:13.465Z,4.25
2023-05-13T14:56:41.659Z,100.97
2023-05-13T14:59:09.727Z,460.02
2023-05-13T15:01:38.369Z,183.32
2023-05-13T15:04:06.213Z,449.33
2023-05-13T15:06:36.846Z,235.07
2023-05-13T15:09:05.764Z,290.08
2023-05-13T15:11:33.480Z,278.30
2023-05-13T15:14:01.891Z,66.28
2023-05-13T15:16:29.527Z,3.95
2023-05-13T15:18:57.320Z,344.42
2023-05-13T15:21:24.780Z,229.77
2023-05-13T15:23:52.227Z,6.13
2023-05-13T15:26:19.867Z,87.85
2023-05-13T15:28:47.608Z,179.63
2023-05-13T15:31:15.152Z,233.50
2023-05-13T15:33:44.554Z,55.33
2023-05-13T15:36:12.783Z,3.05
2023-05-13T15:38:40.816Z,2.15
2023-05-13T15:41:08.630Z,13.52
2023-05-13T15:43:36.534Z,120.65
2023-05-13T15:46:04.722Z,38.72
2023-05-13T15:48:33.083Z,17.88
2023-05-13T15:51:03.497Z,6.72
2023-05-13T15:53:31.455Z,3.00
2023-05-13T15:55:58.925Z,2.17
2023-05-13T15:58:26.797Z,1.90
2023-05-13T16:00:54.305Z,2.03
2023-05-13T16:03:22.321Z,1.70
2023-05-13T16:05:49.877Z,1.80
2023-05-13T16:08:18.773Z,3.88
2023-05-13T16:10:47.092Z,11.73
2023-05-13T16:13:14.659Z,14.98
2023-05-13T16:15:42.240Z,14.68
2023-05-13T16:18:09.934Z,7.45
2023-05-13T16:20:37.498Z,6.88
2023-05-13T16:23:05.190Z,3.00
2023-05-13T16:25:33.929Z,2.55
2023-05-13T16:28:01.606Z,3.10
2023-05-13T16:30:29.436Z,3.78
2023-05-13T16:32:57.529Z,2.58
2023-05-13T16:35:25.057Z,2.92
2023-05-13T16:37:52.744Z,2.47
2023-05-13T16:40:20.596Z,3.55
2023-05-13T16:42:48.192Z,3.30
2023-05-13T16:45:15.746Z,3.35
2023-05-13T16:47:43.604Z,3.28
2023-05-13T16:50:11.210Z,3.92
2023-05-13T16:52:38.836Z,5.45
2023-05-13T16:55:06.984Z,5.45
2023-05-13T16:57:35.095Z,4.72
2023-05-13T17:00:02.656Z,4.70
2023-05-13T17:02:30.798Z,4.53
2023-05-13T17:04:58.279Z,4.07
2023-05-13T17:07:25.745Z,4.32
2023-05-13T17:09:53.293Z,3.97
2023-05-13T17:12:21.891Z,4.03
2023-05-13T17:14:49.359Z,4.25
2023-05-13T17:17:16.875Z,3.80
2023-05-13T17:19:44.563Z,3.80
2023-05-13T17:22:12.494Z,4.82
2023-05-13T17:24:40.691Z,4.35
2023-05-13T17:27:08.169Z,3.58
2023-05-13T17:29:35.694Z,4.15
2023-05-13T17:32:03.359Z,4.43
2023-05-13T17:34:30.971Z,5.07
2023-05-13T17:36:58.810Z,4.88
2023-05-13T17:39:28.408Z,5.45
2023-05-13T17:41:55.912Z,5.32
2023-05-13T17:44:24.133Z,5.70
2023-05-13T17:46:51.872Z,5.45
2023-05-13T17:49:19.766Z,6.10
2023-05-13T17:51:47.287Z,7.30
2023-05-13T17:54:15.048Z,6.43
2023-05-13T17:56:42.670Z,6.13
2023-05-13T17:59:10.359Z,6.45
2023-05-13T18:01:38.577Z,6.53
2023-05-13T18:04:06.393Z,5.53
2023-05-13T18:06:34.172Z,6.28
2023-05-13T18:09:02.638Z,5.65
2023-05-13T18:11:30.218Z,5.97
2023-05-13T18:13:57.832Z,5.25
2023-05-13T18:16:25.465Z,5.63
2023-05-13T18:18:53.223Z,5.57
2023-05-13T18:21:23.006Z,6.40
2023-05-13T18:23:50.527Z,6.47
2023-05-13T18:26:18.690Z,6.35
2023-05-13T18:28:46.952Z,6.53
2023-05-13T18:31:14.777Z,6.20
2023-05-13T18:33:42.332Z,5.57
2023-05-13T18:36:10.353Z,6.70
2023-05-13T18:38:39.621Z,5.93
2023-05-13T18:41:07.177Z,6.18
2023-05-13T18:43:34.717Z,6.00
2023-05-13T18:46:02.591Z,6.30
2023-05-13T18:48:30.495Z,6.07
2023-05-13T18:50:57.984Z,5.78
2023-05-13T18:53:25.477Z,6.25
2023-05-13T18:55:53.351Z,5.82
2023-05-13T18:58:21.310Z,6.18
2023-05-13T19:00:49.179Z,5.85
2023-05-13T19:03:17.248Z,6.03
2023-05-13T19:05:46.257Z,6.13
2023-05-13T19:08:14.276Z,6.10
2023-05-13T19:10:42.053Z,6.03
2023-05-13T19:13:09.638Z,6.15
2023-05-13T19:15:37.186Z,5.63
2023-05-13T19:18:04.767Z,5.68
2023-05-13T19:20:32.432Z,5.63
2023-05-13T19:23:00.214Z,5.45
2023-05-13T19:25:28.130Z,5.72
2023-05-13T19:27:56.370Z,5.47
2023-05-13T19:30:24.199Z,5.75
2023-05-13T19:32:52.890Z,8.57
2023-05-13T19:35:20.520Z,5.93
2023-05-13T19:37:48.119Z,6.03
2023-05-13T19:40:15.726Z,5.47
2023-05-13T19:42:43.261Z,5.80
2023-05-13T19:45:11.152Z,5.68
2023-05-13T19:47:39.596Z,6.43
2023-05-13T19:50:07.405Z,6.25
2023-05-13T19:52:35.283Z,6.10
2023-05-13T19:55:03.267Z,5.88
2023-05-13T19:57:31.250Z,6.35
2023-05-13T19:59:58.882Z,7.15
2023-05-13T20:02:26.917Z,7.32
2023-05-13T20:04:54.507Z,7.32
2023-05-13T20:07:22.010Z,7.93
2023-05-13T20:09:49.643Z,7.75
2023-05-13T20:12:17.120Z,8.18
2023-05-13T20:14:48.877Z,8.63
2023-05-13T20:17:18.241Z,9.40
2023-05-13T20:19:47.427Z,8.77
2023-05-13T20:22:16.534Z,9.07
2023-05-13T20:24:48.055Z,10.15
2023-05-13T20:27:16.140Z,10.10
2023-05-13T20:29:44.710Z,9.43
2023-05-13T20:32:12.288Z,8.52
2023-05-13T20:34:41.420Z,9.23
2023-05-13T20:37:09.003Z,9.93
2023-05-13T20:39:36.912Z,9.90
2023-05-13T20:42:04.550Z,9.85
2023-05-13T20:44:33.013Z,10.43
2023-05-13T20:47:01.034Z,10.55
2023-05-13T20:49:28.576Z,11.43
2023-05-13T20:52:01.284Z,10.73
2023-05-13T20:54:29.137Z,9.82
2023-05-13T20:56:56.722Z,10.00
2023-05-13T20:59:24.131Z,11.32
2023-05-13T21:01:51.684Z,11.60
2023-05-13T21:04:19.559Z,11.00
2023-05-13T21:06:47.622Z,10.85
2023-05-13T21:09:15.142Z,11.63
2023-05-13T21:11:43.215Z,12.52
2023-05-13T21:14:10.648Z,9.77
2023-05-13T21:16:38.094Z,11.23
2023-05-13T21:19:05.683Z,11.05
2023-05-13T21:21:33.450Z,11.50
2023-05-13T21:24:00.989Z,11.38
2023-05-13T21:26:28.521Z,10.73
2023-05-13T21:28:55.953Z,10.27
2023-05-13T21:31:23.804Z,10.95
2023-05-13T21:33:51.440Z,11.25
2023-05-13T21:36:19.134Z,11.63
2023-05-13T21:38:46.717Z,10.48
2023-05-13T21:41:14.339Z,10.18
2023-05-13T21:43:41.987Z,11.88
2023-05-13T21:46:09.601Z,12.73
2023-05-13T21:48:37.328Z,12.15
2023-05-13T21:51:04.824Z,12.20
2023-05-13T21:53:33.970Z,12.32
2023-05-13T21:56:02.011Z,12.75
2023-05-13T21:58:29.608Z,11.68
2023-05-13T22:00:57.174Z,12.45
2023-05-13T22:03:24.745Z,11.57
2023-05-13T22:05:52.297Z,12.15
2023-05-13T22:08:21.189Z,11.90
2023-05-13T22:10:48.715Z,11.00
2023-05-13T22:13:17.166Z,11.55
2023-05-13T22:15:44.730Z,9.98
2023-05-13T22:18:12.725Z,7.90
2023-05-13T22:20:40.374Z,9.98
2023-05-13T22:23:07.896Z,11.00
2023-05-13T22:25:35.429Z,10.13
2023-05-13T22:28:03.035Z,8.97
2023-05-13T22:30:31.024Z,9.25
2023-05-13T22:32:59.177Z,8.25
2023-05-13T22:35:28.905Z,9.38
2023-05-13T22:37:56.564Z,8.98
2023-05-13T22:40:24.280Z,8.27
2023-05-13T22:42:52.380Z,8.90
2023-05-13T22:45:20.014Z,8.52
2023-05-13T22:47:48.134Z,8.20
2023-05-13T22:50:15.815Z,8.35
2023-05-13T22:52:43.365Z,7.78
2023-05-13T22:55:11.086Z,7.75
2023-05-13T22:57:39.462Z,8.38
2023-05-13T23:00:07.830Z,8.18
2023-05-13T23:02:35.551Z,8.23
2023-05-13T23:05:03.405Z,8.00
2023-05-13T23:07:30.980Z,7.90
2023-05-13T23:09:58.358Z,8.52
2023-05-13T23:12:26.532Z,7.72
2023-05-13T23:14:53.978Z,8.13
2023-05-13T23:17:21.536Z,8.40
2023-05-13T23:19:48.900Z,7.70
2023-05-13T23:22:16.347Z,7.22
2023-05-13T23:24:43.685Z,8.93
2023-05-13T23:27:11.785Z,8.00
2023-05-13T23:29:39.218Z,7.03
2023-05-13T23:32:07.034Z,7.63
2023-05-13T23:34:34.864Z,8.10
2023-05-13T23:37:02.376Z,9.32
2023-05-13T23:39:29.809Z,8.63
2023-05-13T23:41:57.325Z,10.80
2023-05-13T23:44:24.736Z,9.88
2023-05-13T23:46:52.175Z,9.20
2023-05-13T23:49:19.573Z,9.40
2023-05-13T23:51:47.052Z,10.23
2023-05-13T23:54:14.384Z,10.52
2023-05-13T23:56:41.896Z,11.02
2023-05-13T23:59:09.261Z,14.23
